Time;durP1;ratioP1;P1;durP2;ratioP2;P2;SDS_P1;SDS_P2;PMS_P1;PMS_P2;Temp;Humidity;BMP_temperature;BMP_pressure;BME280_temperature;BME280_humidity;BME280_pressure;Samples;Min_cycle;Max_cycle;Signal;HPM_P1;HPM_P2
2021/12/14 21:30:11;;;;;;;29.20;12.45;;;;;;;0.83;100.00;142476.42;1853461;77;26408;-55
2021/12/14 21:32:51;;;;;;;27.32;12.00;;;;;;;0.83;100.00;142476.42;1834959;77;22558;-57
2021/12/14 21:35:51;;;;;;;27.02;13.55;;;;;;;0.88;100.00;142488.86;1834150;77;22227;-55
2021/12/14 21:38:46;;;;;;;27.58;13.10;;;;;;;0.98;100.00;142513.73;1820649;77;22132;-55
2021/12/14 21:41:37;;;;;;;26.60;11.35;;;;;;;1.05;100.00;142531.16;1823266;77;22234;-55
2021/12/14 21:47:21;;;;;;;22.20;12.50;;;;;;;1.22;100.00;142572.23;1818664;77;22252;-59
2021/12/14 21:50:20;;;;;;;22.87;9.15;;;;;;;1.33;100.00;142597.13;1816641;77;22225;-55
2021/12/14 21:52:56;;;;;;;16.10;9.13;;;;;;;1.42;100.00;142620.73;1802131;77;28102;-54
2021/12/14 21:55:51;;;;;;;15.45;8.18;;;;;;;1.58;100.00;142659.34;1784376;79;22300;-55
2021/12/14 21:58:27;;;;;;;15.93;8.83;;;;;;;1.63;100.00;142671.80;1803588;77;28100;-53
2021/12/14 22:01:08;;;;;;;18.27;9.58;;;;;;;1.74;100.00;142699.16;1816061;77;22209;-58
2021/12/14 22:04:03;;;;;;;16.67;8.75;;;;;;;1.80;100.00;142712.84;1827376;77;22251;-58
2021/12/14 22:07:09;;;;;;;13.28;7.17;;;;;;;1.82;100.00;142716.59;1816260;77;22220;-56
2021/12/14 22:09:51;;;;;;;13.62;7.53;;;;;;;1.77;100.00;142705.39;1825451;77;22187;-58
2021/12/14 22:12:47;;;;;;;15.40;7.62;;;;;;;1.67;100.00;142680.48;1820072;77;22199;-56
2021/12/14 22:15:30;;;;;;;17.75;8.75;;;;;;;1.60;100.00;142664.30;1830348;77;22140;-54
2021/12/14 22:18:28;;;;;;;17.57;8.80;;;;;;;1.59;100.00;142660.58;1834495;77;22219;-56
2021/12/14 22:21:06;;;;;;;18.57;9.28;;;;;;;1.58;100.00;142658.06;1852550;77;22159;-55
2021/12/14 22:24:01;;;;;;;17.30;8.60;;;;;;;1.55;100.00;142650.61;1853557;77;22127;-55
2021/12/14 22:26:55;;;;;;;19.57;9.75;;;;;;;1.51;100.00;142641.91;1834846;77;22176;-57
2021/12/14 22:29:31;;;;;;;16.55;8.83;;;;;;;1.49;100.00;142638.16;1853572;77;22135;-55
2021/12/14 22:32:09;;;;;;;16.25;8.98;;;;;;;1.52;100.00;142645.63;1819396;77;28497;-52
2021/12/14 22:35:06;;;;;;;13.78;7.70;;;;;;;1.61;100.00;142666.81;1834933;77;22160;-53
2021/12/14 22:37:41;;;;;;;16.87;9.73;;;;;;;1.59;100.00;142660.58;1835072;77;22164;-54
2021/12/14 22:40:23;;;;;;;14.23;9.25;;;;;;;1.54;100.00;142648.14;1819388;77;28004;-56
2021/12/14 22:46:15;;;;;;;16.48;9.38;;;;;;;1.54;100.00;142648.14;1834933;77;22191;-54
2021/12/14 22:49:22;;;;;;;19.95;9.18;;;;;;;1.52;100.00;142644.39;1834951;77;22552;-55
2021/12/14 22:52:23;;;;;;;15.98;8.33;;;;;;;1.50;100.00;142640.69;1853450;77;22152;-54
2021/12/14 22:55:19;;;;;;;18.07;8.83;;;;;;;1.45;100.00;142628.23;1853655;77;22127;-55
2021/12/14 22:57:55;;;;;;;16.60;9.15;;;;;;;1.42;100.00;142619.50;1834972;77;22159;-53
2021/12/14 23:00:44;;;;;;;18.57;9.78;;;;;;;1.37;100.00;142608.28;1837794;77;28023;-55
2021/12/14 23:03:53;;;;;;;16.17;9.10;;;;;;;1.42;100.00;142620.73;1834194;77;22639;-56
2021/12/14 23:06:41;;;;;;;18.32;8.70;;;;;;;1.40;100.00;142615.80;1835003;77;22160;-55
2021/12/14 23:09:25;;;;;;;16.02;8.15;;;;;;;1.40;100.00;142615.80;1835143;77;22121;-54
2021/12/14 23:12:06;;;;;;;15.13;7.90;;;;;;;1.37;100.00;142607.05;1834819;77;22197;-56
2021/12/14 23:14:42;;;;;;;13.70;7.67;;;;;;;1.34;100.00;142599.59;1835011;77;22211;-54
2021/12/14 23:17:19;;;;;;;11.97;6.03;;;;;;;1.34;100.00;142600.83;1835041;77;20358;-54
2021/12/14 23:20:01;;;;;;;13.38;6.58;;;;;;;1.32;100.00;142594.61;1834408;77;22144;-54
2021/12/14 23:22:44;;;;;;;12.00;7.12;;;;;;;1.32;100.00;142594.61;1853523;77;23712;-55
2021/12/14 23:25:22;;;;;;;16.40;7.35;;;;;;;1.34;100.00;142599.59;1835123;77;22156;-55
2021/12/14 23:27:56;;;;;;;11.93;6.60;;;;;;;1.38;100.00;142610.80;1835222;77;20104;-54
2021/12/14 23:30:39;;;;;;;12.88;6.30;;;;;;;1.39;100.00;142613.28;1848185;77;22563;-53
2021/12/14 23:33:17;;;;;;;12.73;7.08;;;;;;;1.38;100.00;142610.80;1853544;77;22132;-54
2021/12/14 23:36:16;;;;;;;11.95;6.78;;;;;;;1.39;100.00;142612.03;1834954;77;22136;-53
2021/12/14 23:38:55;;;;;;;13.28;6.60;;;;;;;1.39;100.00;142613.28;1853575;77;22160;-53
2021/12/14 23:41:36;;;;;;;11.38;7.10;;;;;;;1.35;100.00;142603.34;1835014;77;22574;-54
2021/12/14 23:44:27;;;;;;;12.00;6.83;;;;;;;1.39;100.00;142613.28;1819363;77;27984;-54
2021/12/14 23:47:22;;;;;;;12.63;6.60;;;;;;;1.46;100.00;142630.70;1834937;77;22157;-55
2021/12/14 23:50:00;;;;;;;10.85;7.15;;;;;;;1.48;100.00;142635.69;1819412;77;28018;-57
2021/12/14 23:52:54;;;;;;;12.45;6.75;;;;;;;1.53;100.00;142646.91;1853526;77;22135;-55
2021/12/14 23:55:29;;;;;;;9.70;6.00;;;;;;;1.46;100.00;142630.70;1853543;77;22132;-55
2021/12/14 23:58:06;;;;;;;12.58;7.17;;;;;;;1.50;100.00;142640.69;1835008;77;22136;-56
